sensor_id;sensor_type;location;lat;lon;timestamp;P1;durP1;ratioP1;P2;durP2;ratioP2
4676;SDS011;2352;48.180;11.478;2024-01-15T00:03:41;7.67;;;6.93;;
4676;SDS011;2352;48.180;11.478;2024-01-15T00:08:48;8.30;;;7.70;;
4676;SDS011;2352;48.180;11.478;2024-01-15T00:13:52;10.17;;;9.20;;
4676;SDS011;2352;48.180;11.478;2024-01-15T00:18:55;9.27;;;8.57;;
4676;SDS011;2352;48.180;11.478;2024-01-15T00:23:58;9.97;;;9.10;;
4676;SDS011;2352;48.180;11.478;2024-01-15T00:29:03;8.37;;;7.57;;
4676;SDS011;2352;48.180;11.478;2024-01-15T00:34:06;9.43;;;8.73;;
4676;SDS011;2352;48.180;11.478;2024-01-15T00:39:09;8.90;;;8.10;;
4676;SDS011;2352;48.180;11.478;2024-01-15T00:44:14;8.80;;;8.07;;
4676;SDS011;2352;48.180;11.478;2024-01-15T00:49:17;8.07;;;7.53;;
4676;SDS011;2352;48.180;11.478;2024-01-15T00:54:20;13.53;;;12.43;;
4676;SDS011;2352;48.180;11.478;2024-01-15T00:59:24;13.57;;;12.40;;
4676;SDS011;2352;48.180;11.478;2024-01-15T01:04:27;14.10;;;12.80;;
4676;SDS011;2352;48.180;11.478;2024-01-15T01:09:30;14.37;;;13.07;;
4676;SDS011;2352;48.180;11.478;2024-01-15T01:14:35;13.27;;;12.07;;
4676;SDS011;2352;48.180;11.478;2024-01-15T01:19:38;14.13;;;13.00;;
4676;SDS011;2352;48.180;11.478;2024-01-15T01:24:41;12.60;;;11.60;;
4676;SDS011;2352;48.180;11.478;2024-01-15T01:29:46;12.23;;;11.27;;
4676;SDS011;2352;48.180;11.478;2024-01-15T01:34:49;12.93;;;11.77;;
4676;SDS011;2352;48.180;11.478;2024-01-15T01:39:52;11.47;;;10.47;;
4676;SDS011;2352;48.180;11.478;2024-01-15T01:44:56;12.80;;;11.60;;
4676;SDS011;2352;48.180;11.478;2024-01-15T01:49:59;12.80;;;11.63;;
4676;SDS011;2352;48.180;11.478;2024-01-15T01:55:03;12.20;;;11.07;;
4676;SDS011;2352;48.180;11.478;2024-01-15T02:00:10;11.57;;;10.57;;
4676;SDS011;2352;48.180;11.478;2024-01-15T02:05:14;11.90;;;10.87;;
4676;SDS011;2352;48.180;11.478;2024-01-15T02:10:21;11.67;;;10.63;;
4676;SDS011;2352;48.180;11.478;2024-01-15T02:15:25;12.17;;;11.03;;
4676;SDS011;2352;48.180;11.478;2024-01-15T02:20:28;12.80;;;11.70;;
4676;SDS011;2352;48.180;11.478;2024-01-15T02:25:33;11.93;;;10.93;;
4676;SDS011;2352;48.180;11.478;2024-01-15T02:30:37;12.17;;;10.97;;
4676;SDS011;2352;48.180;11.478;2024-01-15T02:35:41;13.23;;;12.03;;
4676;SDS011;2352;48.180;11.478;2024-01-15T02:40:45;11.93;;;10.90;;
4676;SDS011;2352;48.180;11.478;2024-01-15T02:45:49;12.60;;;11.47;;
4676;SDS011;2352;48.180;11.478;2024-01-15T02:50:52;14.10;;;12.73;;
4676;SDS011;2352;48.180;11.478;2024-01-15T02:55:56;11.77;;;10.57;;
4676;SDS011;2352;48.180;11.478;2024-01-15T03:00:59;12.33;;;11.13;;
4676;SDS011;2352;48.180;11.478;2024-01-15T03:06:02;12.83;;;11.63;;
4676;SDS011;2352;48.180;11.478;2024-01-15T03:11:07;12.73;;;11.53;;
4676;SDS011;2352;48.180;11.478;2024-01-15T03:16:10;11.27;;;10.27;;
4676;SDS011;2352;48.180;11.478;2024-01-15T03:21:13;10.63;;;9.67;;
4676;SDS011;2352;48.180;11.478;2024-01-15T03:26:17;12.77;;;11.70;;
4676;SDS011;2352;48.180;11.478;2024-01-15T03:31:20;11.77;;;10.53;;
4676;SDS011;2352;48.180;11.478;2024-01-15T03:36:23;12.63;;;11.40;;
4676;SDS011;2352;48.180;11.478;2024-01-15T03:41:27;11.13;;;10.07;;
4676;SDS011;2352;48.180;11.478;2024-01-15T03:46:30;11.97;;;10.90;;
4676;SDS011;2352;48.180;11.478;2024-01-15T03:51:33;10.97;;;10.13;;
4676;SDS011;2352;48.180;11.478;2024-01-15T03:56:38;11.37;;;10.27;;
4676;SDS011;2352;48.180;11.478;2024-01-15T04:01:40;11.47;;;10.37;;
4676;SDS011;2352;48.180;11.478;2024-01-15T04:06:50;12.23;;;11.07;;
4676;SDS011;2352;48.180;11.478;2024-01-15T04:11:54;11.67;;;10.53;;
4676;SDS011;2352;48.180;11.478;2024-01-15T04:16:57;11.03;;;10.13;;
4676;SDS011;2352;48.180;11.478;2024-01-15T04:22:00;12.40;;;11.30;;
4676;SDS011;2352;48.180;11.478;2024-01-15T04:27:04;12.37;;;11.23;;
4676;SDS011;2352;48.180;11.478;2024-01-15T04:32:08;12.27;;;10.97;;
4676;SDS011;2352;48.180;11.478;2024-01-15T04:37:10;11.60;;;10.40;;
4676;SDS011;2352;48.180;11.478;2024-01-15T04:42:15;11.67;;;10.67;;
4676;SDS011;2352;48.180;11.478;2024-01-15T04:47:18;12.10;;;10.97;;
4676;SDS011;2352;48.180;11.478;2024-01-15T04:52:21;11.60;;;10.57;;
4676;SDS011;2352;48.180;11.478;2024-01-15T04:57:25;10.90;;;9.97;;
4676;SDS011;2352;48.180;11.478;2024-01-15T05:02:28;10.17;;;9.27;;
4676;SDS011;2352;48.180;11.478;2024-01-15T05:07:31;10.20;;;9.20;;
4676;SDS011;2352;48.180;11.478;2024-01-15T05:12:36;10.37;;;9.47;;
4676;SDS011;2352;48.180;11.478;2024-01-15T05:17:39;9.90;;;9.20;;
4676;SDS011;2352;48.180;11.478;2024-01-15T05:22:42;9.90;;;8.77;;
4676;SDS011;2352;48.180;11.478;2024-01-15T05:27:46;10.17;;;9.27;;
4676;SDS011;2352;48.180;11.478;2024-01-15T05:32:49;10.57;;;9.67;;
4676;SDS011;2352;48.180;11.478;2024-01-15T05:37:52;9.50;;;8.67;;
4676;SDS011;2352;48.180;11.478;2024-01-15T05:42:56;9.73;;;9.03;;
4676;SDS011;2352;48.180;11.478;2024-01-15T05:47:59;10.50;;;9.60;;
4676;SDS011;2352;48.180;11.478;2024-01-15T05:53:02;10.27;;;9.20;;
4676;SDS011;2352;48.180;11.478;2024-01-15T05:58:07;10.07;;;9.13;;
4676;SDS011;2352;48.180;11.478;2024-01-15T06:03:10;9.83;;;8.83;;
4676;SDS011;2352;48.180;11.478;2024-01-15T06:08:13;9.23;;;8.43;;
4676;SDS011;2352;48.180;11.478;2024-01-15T06:13:18;9.10;;;8.40;;
4676;SDS011;2352;48.180;11.478;2024-01-15T06:18:21;9.97;;;8.47;;
4676;SDS011;2352;48.180;11.478;2024-01-15T06:23:24;7.67;;;7.00;;
4676;SDS011;2352;48.180;11.478;2024-01-15T06:28:28;9.50;;;8.63;;
4676;SDS011;2352;48.180;11.478;2024-01-15T06:33:31;9.33;;;8.43;;
4676;SDS011;2352;48.180;11.478;2024-01-15T06:38:34;9.73;;;7.73;;
4676;SDS011;2352;48.180;11.478;2024-01-15T06:43:39;8.50;;;7.90;;
4676;SDS011;2352;48.180;11.478;2024-01-15T06:48:41;8.43;;;7.70;;
4676;SDS011;2352;48.180;11.478;2024-01-15T06:53:44;8.57;;;7.87;;
4676;SDS011;2352;48.180;11.478;2024-01-15T06:58:49;8.70;;;7.80;;
4676;SDS011;2352;48.180;11.478;2024-01-15T07:03:52;9.10;;;8.37;;
4676;SDS011;2352;48.180;11.478;2024-01-15T07:08:55;9.57;;;8.77;;
4676;SDS011;2352;48.180;11.478;2024-01-15T07:13:59;9.23;;;8.60;;
4676;SDS011;2352;48.180;11.478;2024-01-15T07:19:02;8.73;;;8.03;;
4676;SDS011;2352;48.180;11.478;2024-01-15T07:24:05;8.87;;;8.00;;
4676;SDS011;2352;48.180;11.478;2024-01-15T07:29:10;9.33;;;8.53;;
4676;SDS011;2352;48.180;11.478;2024-01-15T07:34:13;10.20;;;9.40;;
4676;SDS011;2352;48.180;11.478;2024-01-15T07:39:16;9.50;;;8.73;;
4676;SDS011;2352;48.180;11.478;2024-01-15T07:44:21;10.77;;;9.77;;
4676;SDS011;2352;48.180;11.478;2024-01-15T07:49:24;10.57;;;9.63;;
4676;SDS011;2352;48.180;11.478;2024-01-15T07:54:27;9.73;;;8.93;;
4676;SDS011;2352;48.180;11.478;2024-01-15T07:59:31;10.63;;;9.67;;
4676;SDS011;2352;48.180;11.478;2024-01-15T08:04:34;9.77;;;8.87;;
4676;SDS011;2352;48.180;11.478;2024-01-15T08:09:38;10.83;;;9.37;;
4676;SDS011;2352;48.180;11.478;2024-01-15T08:14:43;10.57;;;9.67;;
4676;SDS011;2352;48.180;11.478;2024-01-15T08:19:46;9.50;;;8.70;;
4676;SDS011;2352;48.180;11.478;2024-01-15T08:24:49;9.80;;;9.00;;
4676;SDS011;2352;48.180;11.478;2024-01-15T08:29:54;9.90;;;9.10;;
4676;SDS011;2352;48.180;11.478;2024-01-15T08:34:57;9.63;;;8.83;;
4676;SDS011;2352;48.180;11.478;2024-01-15T08:40:00;9.17;;;8.37;;
4676;SDS011;2352;48.180;11.478;2024-01-15T08:45:06;8.40;;;7.80;;
4676;SDS011;2352;48.180;11.478;2024-01-15T08:50:09;9.53;;;8.73;;
4676;SDS011;2352;48.180;11.478;2024-01-15T08:55:12;9.27;;;8.47;;
4676;SDS011;2352;48.180;11.478;2024-01-15T09:00:17;8.83;;;8.20;;
4676;SDS011;2352;48.180;11.478;2024-01-15T09:05:20;9.23;;;8.47;;
4676;SDS011;2352;48.180;11.478;2024-01-15T09:10:23;8.60;;;7.90;;
4676;SDS011;2352;48.180;11.478;2024-01-15T09:15:27;10.10;;;9.30;;
4676;SDS011;2352;48.180;11.478;2024-01-15T09:20:30;10.13;;;9.27;;
4676;SDS011;2352;48.180;11.478;2024-01-15T09:25:33;12.23;;;8.90;;
4676;SDS011;2352;48.180;11.478;2024-01-15T09:30:37;9.30;;;8.50;;
4676;SDS011;2352;48.180;11.478;2024-01-15T09:35:40;8.77;;;8.13;;
4676;SDS011;2352;48.180;11.478;2024-01-15T09:40:43;8.90;;;8.20;;
4676;SDS011;2352;48.180;11.478;2024-01-15T09:45:50;8.30;;;7.70;;
4676;SDS011;2352;48.180;11.478;2024-01-15T09:50:54;9.40;;;7.67;;
4676;SDS011;2352;48.180;11.478;2024-01-15T09:55:59;7.50;;;7.00;;
4676;SDS011;2352;48.180;11.478;2024-01-15T10:01:04;7.10;;;6.60;;
4676;SDS011;2352;48.180;11.478;2024-01-15T10:06:09;6.30;;;5.80;;
4676;SDS011;2352;48.180;11.478;2024-01-15T10:11:22;7.57;;;6.97;;
4676;SDS011;2352;48.180;11.478;2024-01-15T10:16:27;6.77;;;6.17;;
4676;SDS011;2352;48.180;11.478;2024-01-15T10:21:31;6.93;;;6.40;;
4676;SDS011;2352;48.180;11.478;2024-01-15T10:26:36;5.90;;;5.40;;
4676;SDS011;2352;48.180;11.478;2024-01-15T10:31:40;6.30;;;5.80;;
4676;SDS011;2352;48.180;11.478;2024-01-15T10:36:45;6.53;;;6.03;;
4676;SDS011;2352;48.180;11.478;2024-01-15T10:41:49;7.70;;;5.77;;
4676;SDS011;2352;48.180;11.478;2024-01-15T10:46:54;7.53;;;6.30;;
4676;SDS011;2352;48.180;11.478;2024-01-15T10:51:59;6.27;;;5.77;;
4676;SDS011;2352;48.180;11.478;2024-01-15T10:57:04;6.20;;;5.70;;
4676;SDS011;2352;48.180;11.478;2024-01-15T11:02:09;7.73;;;7.03;;
4676;SDS011;2352;48.180;11.478;2024-01-15T11:07:12;7.33;;;6.67;;
4676;SDS011;2352;48.180;11.478;2024-01-15T11:12:16;7.23;;;6.63;;
4676;SDS011;2352;48.180;11.478;2024-01-15T11:17:22;6.37;;;5.87;;
4676;SDS011;2352;48.180;11.478;2024-01-15T11:27:50;6.13;;;5.47;;
4676;SDS011;2352;48.180;11.478;2024-01-15T11:32:57;6.80;;;6.30;;
4676;SDS011;2352;48.180;11.478;2024-01-15T11:38:00;6.37;;;5.87;;
4676;SDS011;2352;48.180;11.478;2024-01-15T11:43:04;6.27;;;5.67;;
4676;SDS011;2352;48.180;11.478;2024-01-15T11:48:12;5.60;;;5.17;;
4676;SDS011;2352;48.180;11.478;2024-01-15T11:53:19;6.93;;;6.33;;
4676;SDS011;2352;48.180;11.478;2024-01-15T11:58:30;6.27;;;5.77;;
4676;SDS011;2352;48.180;11.478;2024-01-15T12:03:34;5.80;;;5.30;;
4676;SDS011;2352;48.180;11.478;2024-01-15T12:08:37;5.90;;;5.50;;
4676;SDS011;2352;48.180;11.478;2024-01-15T12:13:40;5.37;;;4.97;;
4676;SDS011;2352;48.180;11.478;2024-01-15T12:18:45;5.20;;;4.80;;
4676;SDS011;2352;48.180;11.478;2024-01-15T12:23:48;5.20;;;4.73;;
4676;SDS011;2352;48.180;11.478;2024-01-15T12:28:54;4.87;;;4.13;;
4676;SDS011;2352;48.180;11.478;2024-01-15T12:33:59;4.23;;;3.93;;
4676;SDS011;2352;48.180;11.478;2024-01-15T12:39:04;3.80;;;3.47;;
4676;SDS011;2352;48.180;11.478;2024-01-15T12:44:09;3.70;;;3.23;;
4676;SDS011;2352;48.180;11.478;2024-01-15T12:49:14;3.60;;;3.40;;
4676;SDS011;2352;48.180;11.478;2024-01-15T12:54:17;4.03;;;3.63;;
4676;SDS011;2352;48.180;11.478;2024-01-15T12:59:20;3.03;;;2.83;;
4676;SDS011;2352;48.180;11.478;2024-01-15T13:04:24;4.20;;;3.43;;
4676;SDS011;2352;48.180;11.478;2024-01-15T13:09:27;4.67;;;4.27;;
4676;SDS011;2352;48.180;11.478;2024-01-15T13:14:31;6.60;;;4.70;;
4676;SDS011;2352;48.180;11.478;2024-01-15T13:19:35;5.13;;;4.70;;
4676;SDS011;2352;48.180;11.478;2024-01-15T13:24:38;5.13;;;4.43;;
4676;SDS011;2352;48.180;11.478;2024-01-15T13:29:41;4.90;;;4.50;;
4676;SDS011;2352;48.180;11.478;2024-01-15T13:34:46;5.90;;;5.30;;
4676;SDS011;2352;48.180;11.478;2024-01-15T13:39:49;5.87;;;5.37;;
4676;SDS011;2352;48.180;11.478;2024-01-15T13:44:53;5.03;;;4.63;;
4676;SDS011;2352;48.180;11.478;2024-01-15T13:49:57;5.60;;;5.10;;
4676;SDS011;2352;48.180;11.478;2024-01-15T13:55:01;5.50;;;4.93;;
4676;SDS011;2352;48.180;11.478;2024-01-15T14:00:05;7.37;;;6.77;;
4676;SDS011;2352;48.180;11.478;2024-01-15T14:05:15;5.80;;;5.30;;
4676;SDS011;2352;48.180;11.478;2024-01-15T14:10:18;6.37;;;5.87;;
4676;SDS011;2352;48.180;11.478;2024-01-15T14:15:21;6.03;;;5.63;;
4676;SDS011;2352;48.180;11.478;2024-01-15T14:20:25;6.67;;;6.17;;
4676;SDS011;2352;48.180;11.478;2024-01-15T14:25:29;7.90;;;7.10;;
4676;SDS011;2352;48.180;11.478;2024-01-15T14:30:31;6.57;;;6.03;;
4676;SDS011;2352;48.180;11.478;2024-01-15T14:35:36;5.97;;;5.47;;
4676;SDS011;2352;48.180;11.478;2024-01-15T14:40:39;5.83;;;5.33;;
4676;SDS011;2352;48.180;11.478;2024-01-15T14:45:42;6.10;;;5.60;;
4676;SDS011;2352;48.180;11.478;2024-01-15T14:50:48;5.90;;;5.40;;
4676;SDS011;2352;48.180;11.478;2024-01-15T14:55:52;6.73;;;6.13;;
4676;SDS011;2352;48.180;11.478;2024-01-15T15:00:55;11.00;;;10.10;;
4676;SDS011;2352;48.180;11.478;2024-01-15T15:05:59;8.60;;;7.90;;
4676;SDS011;2352;48.180;11.478;2024-01-15T15:11:03;5.43;;;5.03;;
4676;SDS011;2352;48.180;11.478;2024-01-15T15:16:06;6.30;;;5.73;;
4676;SDS011;2352;48.180;11.478;2024-01-15T15:21:11;5.90;;;5.40;;
4676;SDS011;2352;48.180;11.478;2024-01-15T15:26:14;5.10;;;4.70;;
4676;SDS011;2352;48.180;11.478;2024-01-15T15:31:17;5.53;;;5.03;;
4676;SDS011;2352;48.180;11.478;2024-01-15T15:36:21;6.03;;;5.40;;
4676;SDS011;2352;48.180;11.478;2024-01-15T15:41:25;6.73;;;6.17;;
4676;SDS011;2352;48.180;11.478;2024-01-15T15:46:29;5.87;;;5.37;;
4676;SDS011;2352;48.180;11.478;2024-01-15T15:51:33;6.53;;;6.03;;
4676;SDS011;2352;48.180;11.478;2024-01-15T15:56:37;8.23;;;6.47;;
4676;SDS011;2352;48.180;11.478;2024-01-15T16:01:40;7.13;;;6.53;;
4676;SDS011;2352;48.180;11.478;2024-01-15T16:06:45;7.60;;;6.90;;
4676;SDS011;2352;48.180;11.478;2024-01-15T16:11:49;7.53;;;6.93;;
4676;SDS011;2352;48.180;11.478;2024-01-15T16:16:52;8.33;;;7.53;;
4676;SDS011;2352;48.180;11.478;2024-01-15T16:22:19;11.90;;;8.63;;
4676;SDS011;2352;48.180;11.478;2024-01-15T16:27:42;8.97;;;8.27;;
4676;SDS011;2352;48.180;11.478;2024-01-15T16:32:45;9.00;;;8.17;;
4676;SDS011;2352;48.180;11.478;2024-01-15T16:37:51;9.27;;;8.43;;
4676;SDS011;2352;48.180;11.478;2024-01-15T16:42:54;10.80;;;9.90;;
4676;SDS011;2352;48.180;11.478;2024-01-15T16:47:57;10.03;;;9.33;;
4676;SDS011;2352;48.180;11.478;2024-01-15T16:53:01;9.13;;;8.30;;
4676;SDS011;2352;48.180;11.478;2024-01-15T16:58:04;9.63;;;8.83;;
4676;SDS011;2352;48.180;11.478;2024-01-15T17:03:07;9.80;;;8.93;;
4676;SDS011;2352;48.180;11.478;2024-01-15T17:08:11;9.70;;;8.93;;
4676;SDS011;2352;48.180;11.478;2024-01-15T17:13:15;11.23;;;10.37;;
4676;SDS011;2352;48.180;11.478;2024-01-15T17:18:17;11.47;;;10.37;;
4676;SDS011;2352;48.180;11.478;2024-01-15T17:23:22;13.53;;;12.23;;
4676;SDS011;2352;48.180;11.478;2024-01-15T17:28:25;6.60;;;6.10;;
4676;SDS011;2352;48.180;11.478;2024-01-15T17:33:28;5.50;;;3.00;;
4676;SDS011;2352;48.180;11.478;2024-01-15T17:38:32;4.00;;;2.30;;
4676;SDS011;2352;48.180;11.478;2024-01-15T17:43:35;2.60;;;2.40;;
4676;SDS011;2352;48.180;11.478;2024-01-15T17:48:38;2.10;;;2.00;;
4676;SDS011;2352;48.180;11.478;2024-01-15T17:53:42;3.20;;;2.90;;
4676;SDS011;2352;48.180;11.478;2024-01-15T17:58:46;4.33;;;4.03;;
4676;SDS011;2352;48.180;11.478;2024-01-15T18:03:49;6.00;;;5.60;;
4676;SDS011;2352;48.180;11.478;2024-01-15T18:08:55;6.53;;;6.13;;
4676;SDS011;2352;48.180;11.478;2024-01-15T18:13:58;7.80;;;7.30;;
4676;SDS011;2352;48.180;11.478;2024-01-15T18:19:01;9.33;;;8.43;;
4676;SDS011;2352;48.180;11.478;2024-01-15T18:24:05;7.60;;;7.00;;
4676;SDS011;2352;48.180;11.478;2024-01-15T18:29:08;6.73;;;6.23;;
4676;SDS011;2352;48.180;11.478;2024-01-15T18:34:11;6.97;;;6.47;;
4676;SDS011;2352;48.180;11.478;2024-01-15T18:39:17;7.03;;;6.53;;
4676;SDS011;2352;48.180;11.478;2024-01-15T18:44:20;7.00;;;6.50;;
4676;SDS011;2352;48.180;11.478;2024-01-15T18:49:23;7.37;;;6.80;;
4676;SDS011;2352;48.180;11.478;2024-01-15T18:54:28;6.67;;;6.17;;
4676;SDS011;2352;48.180;11.478;2024-01-15T18:59:31;7.03;;;6.53;;
4676;SDS011;2352;48.180;11.478;2024-01-15T19:04:35;6.73;;;6.23;;
4676;SDS011;2352;48.180;11.478;2024-01-15T19:09:40;6.77;;;6.30;;
4676;SDS011;2352;48.180;11.478;2024-01-15T19:14:43;7.17;;;6.60;;
4676;SDS011;2352;48.180;11.478;2024-01-15T19:19:46;5.47;;;5.03;;
4676;SDS011;2352;48.180;11.478;2024-01-15T19:24:53;4.40;;;4.10;;
4676;SDS011;2352;48.180;11.478;2024-01-15T19:29:56;4.37;;;4.07;;
4676;SDS011;2352;48.180;11.478;2024-01-15T19:34:59;5.13;;;4.73;;
4676;SDS011;2352;48.180;11.478;2024-01-15T19:40:04;5.23;;;4.83;;
4676;SDS011;2352;48.180;11.478;2024-01-15T19:45:08;7.27;;;5.20;;
4676;SDS011;2352;48.180;11.478;2024-01-15T19:50:11;5.43;;;5.03;;
4676;SDS011;2352;48.180;11.478;2024-01-15T19:55:16;5.13;;;4.83;;
4676;SDS011;2352;48.180;11.478;2024-01-15T20:00:19;5.23;;;4.83;;
4676;SDS011;2352;48.180;11.478;2024-01-15T20:05:22;6.23;;;5.63;;
4676;SDS011;2352;48.180;11.478;2024-01-15T20:10:27;5.37;;;5.00;;
4676;SDS011;2352;48.180;11.478;2024-01-15T20:15:30;5.07;;;4.73;;
4676;SDS011;2352;48.180;11.478;2024-01-15T20:20:36;5.23;;;4.87;;
4676;SDS011;2352;48.180;11.478;2024-01-15T20:25:44;5.87;;;5.47;;
4676;SDS011;2352;48.180;11.478;2024-01-15T20:30:46;5.50;;;4.97;;
4676;SDS011;2352;48.180;11.478;2024-01-15T20:35:50;5.47;;;4.97;;
4676;SDS011;2352;48.180;11.478;2024-01-15T20:40:55;5.37;;;5.03;;
4676;SDS011;2352;48.180;11.478;2024-01-15T20:45:58;6.50;;;5.90;;
4676;SDS011;2352;48.180;11.478;2024-01-15T20:51:02;6.17;;;5.67;;
4676;SDS011;2352;48.180;11.478;2024-01-15T20:56:07;6.93;;;6.43;;
4676;SDS011;2352;48.180;11.478;2024-01-15T21:01:10;5.77;;;5.27;;
4676;SDS011;2352;48.180;11.478;2024-01-15T21:06:14;5.20;;;4.80;;
4676;SDS011;2352;48.180;11.478;2024-01-15T21:11:19;6.17;;;5.73;;
4676;SDS011;2352;48.180;11.478;2024-01-15T21:16:22;7.27;;;5.23;;
4676;SDS011;2352;48.180;11.478;2024-01-15T21:21:25;6.80;;;6.17;;
4676;SDS011;2352;48.180;11.478;2024-01-15T21:26:29;8.70;;;7.60;;
4676;SDS011;2352;48.180;11.478;2024-01-15T21:31:36;8.03;;;7.33;;
4676;SDS011;2352;48.180;11.478;2024-01-15T21:36:39;7.80;;;7.10;;
4676;SDS011;2352;48.180;11.478;2024-01-15T21:41:43;6.83;;;6.30;;
4676;SDS011;2352;48.180;11.478;2024-01-15T21:46:47;7.97;;;6.57;;
4676;SDS011;2352;48.180;11.478;2024-01-15T21:51:50;6.13;;;5.73;;
4676;SDS011;2352;48.180;11.478;2024-01-15T21:56:55;6.07;;;5.47;;
4676;SDS011;2352;48.180;11.478;2024-01-15T22:01:58;5.43;;;4.77;;
4676;SDS011;2352;48.180;11.478;2024-01-15T22:07:05;5.30;;;4.90;;
4676;SDS011;2352;48.180;11.478;2024-01-15T22:12:10;5.57;;;5.17;;
4676;SDS011;2352;48.180;11.478;2024-01-15T22:17:13;4.67;;;4.33;;
4676;SDS011;2352;48.180;11.478;2024-01-15T22:22:16;5.43;;;5.03;;
4676;SDS011;2352;48.180;11.478;2024-01-15T22:27:21;5.23;;;4.80;;
4676;SDS011;2352;48.180;11.478;2024-01-15T22:32:24;4.67;;;4.37;;
4676;SDS011;2352;48.180;11.478;2024-01-15T22:37:31;4.93;;;4.53;;
4676;SDS011;2352;48.180;11.478;2024-01-15T22:42:35;4.27;;;3.87;;
4676;SDS011;2352;48.180;11.478;2024-01-15T22:47:38;3.90;;;3.60;;
4676;SDS011;2352;48.180;11.478;2024-01-15T22:52:41;4.10;;;3.80;;
4676;SDS011;2352;48.180;11.478;2024-01-15T22:57:45;4.83;;;4.37;;
4676;SDS011;2352;48.180;11.478;2024-01-15T23:02:48;4.10;;;3.73;;
4676;SDS011;2352;48.180;11.478;2024-01-15T23:07:53;3.27;;;3.07;;
4676;SDS011;2352;48.180;11.478;2024-01-15T23:12:57;3.00;;;2.80;;
4676;SDS011;2352;48.180;11.478;2024-01-15T23:18:00;4.17;;;3.77;;
4676;SDS011;2352;48.180;11.478;2024-01-15T23:23:04;4.10;;;3.80;;
4676;SDS011;2352;48.180;11.478;2024-01-15T23:28:08;2.87;;;2.67;;
4676;SDS011;2352;48.180;11.478;2024-01-15T23:33:11;3.80;;;3.50;;
4676;SDS011;2352;48.180;11.478;2024-01-15T23:38:14;6.77;;;3.30;;
4676;SDS011;2352;48.180;11.478;2024-01-15T23:43:19;3.33;;;2.90;;
4676;SDS011;2352;48.180;11.478;2024-01-15T23:48:22;3.13;;;2.83;;
4676;SDS011;2352;48.180;11.478;2024-01-15T23:53:25;3.23;;;2.77;;
4676;SDS011;2352;48.180;11.478;2024-01-15T23:58:29;3.00;;;2.80;;
